Terminal Aerodrome Forecast
Issued by NWS Greer, SC

Current Version | Previous Version | Text Only | Print | Product List | Glossary On
Versions: 1 2 3 4 5 6 7 8 9 10 11 12 13 14 15
113
FTUS42 KGSP 200524
TAFGSP
TAF
KGSP 200524Z 2006/2106 24006KT P6SM FEW250
     FM201400 27004KT P6SM SCT250
     FM210000 VRB03KT P6SM FEW250=

USA.gov is the U.S. government's official web portal to all federal, state and local government web resources and services.